Reverse Lookup

Phone list in area 914

Phone numberRecent commentAuthorTotalTime
9142823756Amount is Ended with MaurineGuest82015-12-14 10:48:26
9144343772This Amount was calling like 6 times a daytime. No one talks and Afterward they hang upGuest12015-11-04 17:27:41
9145989397Joke call. and texts. knows where i liveGuest12015-11-04 17:33:19
9142077729tango between for voice send voice mailGuest302015-11-04 17:35:05
9143399651You personally vie won a prize. Guest212015-11-04 17:43:38
9145065146Delivered me an email saying there was a Charge warrant for me. Since there was no name on the Charge warrant I 'm assuming this really is a scam. Guest152015-11-04 17:50:39
9146641975insane. . Guest12015-11-04 17:57:19
9146892713Male along with quite thick Feature asking for someone along with an identical name for mine. Afterward asked me if i Desired lawn service. When i said no he asked me if i Desired for buy condemns for my husband. Guest432015-11-04 18:05:09
9143399505MGuest442015-11-04 18:07:40
9143712997Someone from this number Maintained for work for Cable eyesight Afterward said they re a debt collector working on their Part. Guest52015-11-04 18:15:41
9146305156Invoice collector jeopardize to offer my Amount to spam non Cease calls if I did tGuest62015-12-19 23:50:29
9143399784Security companyGuest292015-11-04 18:22:40
9143682554Cease CALLING AND Awakening ME Up. . . . . . . . Guest2302015-11-04 18:23:58
9146155075block text messages. Cheers. . . Guest112015-11-04 18:44:39
9145107411Called Showing they were working for Morgan Stanley Human Resource Dept and were hiring for a position. Text and instant message. Worked with me for over W minutes while they were Likely retrieving private info out of my personal computer. Afterward wiped everything from the Quick messenger we were communicating through. Guest22015-11-04 18:50:39
9143721001Spam. . . block it if you are able to. . told remove away phone list they Only keep calling its harassmentGuest292015-11-04 18:52:08
9145302282Hang upGuest472015-11-04 18:53:41
9144799059gamesGuest12015-11-04 19:01:19
9143056181ogleGuest12015-11-04 19:29:19
9148851645text message it s a scam saying out of my bank and Interest is needed. This really is your ND from two different numbers. Guest182015-11-04 19:33:42
9147126370They called 4 times saying my CPU has a virus. I m sure it s a scam I did t provide them any authorization for appearance at my systemGuest42015-11-04 20:43:41
9143399660House security 've ask several times not for callGuest482015-11-04 20:45:40
9143399699No express mailGuest422015-11-04 20:46:40
9143399652IDGuest182015-11-04 15:02:38
9146279686SCUMMIER Attempted To Buy CL Item AND Wanted For Purchase VIA PAY PALGuest12015-11-04 15:03:41
9143036468THEY KEEP CALLING AND DON T LEAVE MESSAGES. I CALLED Your Amount AND WAS A Registered MESSAGE SAYING They are Occupied With OTHER CUSTOMERS AND For Telephone BACK After. Guest42015-11-04 15:08:38
9144951127that is a spam numberGuest192015-11-04 15:12:41
9142307712That is ICC CollegeHollie42015-12-16 15:02:45
9142190136Received call on acreage line at 8 W PM. Owner ID shows. AF PO. I don t reply callers I don t know. Went appropriate for replying machine. No message left. WGuest302015-11-04 16:01:05
9144551124Kojak scummierGuest42015-11-04 16:10:41
9148190445Says my computer is Getting malicious gentle Use that's Hazardous to my computer. Needed me for go for my computer and he would display me what files were downloaded. Told him my son might it be and my computer is running Simply Wonderful in windows and Put Upward. Bet next he was going for want for darkness my computer for show me. My question how they got my and knew I 'm running windows on my computer or I even 've a computer. . Guest822015-11-04 16:32:58
9146275681Hello I m Danielle Suss ah i ll enjoy for know if you do Plumbing service and if you do accept credit card as a sort of payment. . . . . . the was the message. Definite scam be aware of this numberGuest52015-11-04 16:40:41
9149338242Obscene text messagesGuest152015-11-04 16:44:42
9142697341Scam Telephone callGuest182015-11-04 16:46:37
9146640111record Around MasterCard which i don't haveGuest382015-11-04 17:06:58
9143072641Telemarketer from quot Net surveys quot Guest12015-11-04 17:26:19
9142906339Out of AREAGuest2212015-11-04 17:59:40
9142147245Calls constantly. Subsequently hangs up along with no message. Guest182015-11-04 18:04:37
9145734256Government scamGuest342015-11-04 18:30:09
9144841553Not certain if this really is a scam or not but it doesn't sound great. Denise S52015-12-19 12:44:33
9142976151image attachedmina42015-12-08 13:56:23
9148775537spamGuest232015-11-04 18:46:42
9142190081Caller ID shows quot state troop quot . Upon telephone back it s a BS telemarketer. Guest902015-11-04 18:53:40
91484053086 calls around 3 times no messages left. . . . Guest162015-11-04 19:13:42
9143399622Called and did t leave a message. Guest252015-11-04 19:27:40
9148821912Dumb BROKE TRICKGuest52015-12-19 06:12:35
9143399726Free Present Card. Guest292015-11-04 19:37:38
9144993489block this numberGuest242015-11-04 19:40:39
9143267023spamGuest222015-11-04 19:54:38
9145142022I keep getting annoying calls from this number when replied they hang upGuest62015-11-04 19:54:39

Our phone number search now works with cell phones and landlines


Phone Dialer, LLC.
27782 W Concrete Dr
Ingleside, IL 60041
P: (815) 759 9277
Email Us
[email protected]
Find out who's calling with Numberrecords.com.
a free tool to help you identify telemarketers and get them to stop calling!

Find out who called you.

Search Over 1 Billion Phone Numbers